Time;durP1;ratioP1;P1;durP2;ratioP2;P2;SDS_P1;SDS_P2;PMS_P1;PMS_P2;Temp;Humidity;BMP_temperature;BMP_pressure;BME280_temperature;BME280_humidity;BME280_pressure;Samples;Min_cycle;Max_cycle;Signal;HPM_P1;HPM_P2
2022/10/04 00:01:24;;;;;;;6.13;3.03;;;;;;;;;;5055437;28;20488;-85
2022/10/04 00:04:01;;;;;;;16.00;3.00;;;;;;;;;;5055460;28;20044;-86
2022/10/04 00:06:29;;;;;;;9.18;3.47;;;;;;;;;;5073251;28;20459;-85
2022/10/04 00:09:01;;;;;;;13.45;3.20;;;;;;;;;;5055328;28;20055;-86
2022/10/04 00:11:29;;;;;;;8.02;3.40;;;;;;;;;;5055640;28;20444;-86
2022/10/04 00:13:57;;;;;;;9.50;3.25;;;;;;;;;;5072868;28;20048;-86
2022/10/04 00:16:30;;;;;;;16.13;3.45;;;;;;;;;;5055304;28;20057;-86
2022/10/04 00:19:02;;;;;;;3.13;2.50;;;;;;;;;;5059223;28;20078;-86
2022/10/04 00:21:48;;;;;;;7.45;2.85;;;;;;;;;;5077212;28;20049;-86
2022/10/04 00:24:22;;;;;;;5.05;2.90;;;;;;;;;;5077100;28;20091;-86
2022/10/04 00:26:49;;;;;;;5.18;2.72;;;;;;;;;;5059256;28;20225;-86
2022/10/04 00:29:28;;;;;;;3.95;2.95;;;;;;;;;;5077189;28;20416;-86
2022/10/04 00:32:07;;;;;;;8.18;2.92;;;;;;;;;;5059278;28;20044;-86
2022/10/04 00:34:35;;;;;;;6.07;2.47;;;;;;;;;;5059332;28;20112;-86
2022/10/04 00:37:03;;;;;;;8.07;2.70;;;;;;;;;;5059333;28;20484;-86
2022/10/04 00:39:38;;;;;;;8.25;3.10;;;;;;;;;;5059302;28;20063;-86
2022/10/04 00:42:11;;;;;;;13.35;3.03;;;;;;;;;;5076761;28;20473;-85
2022/10/04 00:44:40;;;;;;;7.43;3.35;;;;;;;;;;5058903;28;20085;-86
2022/10/04 00:47:30;;;;;;;5.93;2.72;;;;;;;;;;5058858;28;20048;-86
2022/10/04 00:50:06;;;;;;;9.02;2.72;;;;;;;;;;5076579;28;20098;-86
2022/10/04 00:52:36;;;;;;;3.88;2.28;;;;;;;;;;5059071;28;20044;-86
2022/10/04 00:55:05;;;;;;;7.72;2.90;;;;;;;;;;5076179;28;20467;-86
2022/10/04 00:57:35;;;;;;;4.25;2.50;;;;;;;;;;5058888;28;20131;-86
2022/10/04 01:00:08;;;;;;;6.88;2.83;;;;;;;;;;5058964;28;20147;-86
2022/10/04 01:02:53;;;;;;;6.32;2.80;;;;;;;;;;5076542;28;20040;-86
2022/10/04 01:05:26;;;;;;;4.65;2.35;;;;;;;;;;5076086;28;20052;-86
2022/10/04 01:08:08;;;;;;;7.95;2.33;;;;;;;;;;5076329;28;20056;-86
2022/10/04 01:10:42;;;;;;;2.88;2.30;;;;;;;;;;5058760;28;20052;-86
2022/10/04 01:13:13;;;;;;;7.70;2.40;;;;;;;;;;5076337;28;20056;-87
2022/10/04 01:15:49;;;;;;;10.30;2.30;;;;;;;;;;5058345;28;20056;-86
2022/10/04 01:18:20;;;;;;;3.95;2.80;;;;;;;;;;5076183;28;20480;-86
2022/10/04 01:21:06;;;;;;;7.88;2.88;;;;;;;;;;5058614;28;20466;-86
2022/10/04 01:23:36;;;;;;;3.65;2.35;;;;;;;;;;5058198;28;20053;-87
2022/10/04 01:26:31;;;;;;;11.32;2.67;;;;;;;;;;5058068;28;20389;-87
2022/10/04 01:29:10;;;;;;;6.00;2.90;;;;;;;;;;5057315;28;20057;-87
2022/10/04 01:31:39;;;;;;;6.57;2.95;;;;;;;;;;5075726;28;20048;-86
2022/10/04 01:34:07;;;;;;;7.95;3.10;;;;;;;;;;5058172;28;20072;-86
2022/10/04 01:36:35;;;;;;;8.13;2.83;;;;;;;;;;5058077;28;20060;-87
2022/10/04 01:39:04;;;;;;;3.38;2.20;;;;;;;;;;5058294;28;20136;-87
2022/10/04 01:41:38;;;;;;;6.55;2.60;;;;;;;;;;5075668;28;20079;-87
2022/10/04 01:44:07;;;;;;;2.90;2.20;;;;;;;;;;5058039;28;20052;-86
2022/10/04 01:46:35;;;;;;;9.95;3.10;;;;;;;;;;5057989;28;20509;-87
2022/10/04 01:49:04;;;;;;;8.82;3.08;;;;;;;;;;5058174;28;20064;-87
2022/10/04 01:51:34;;;;;;;4.82;2.90;;;;;;;;;;5075650;28;20447;-87
2022/10/04 01:54:09;;;;;;;5.97;2.55;;;;;;;;;;5057750;28;20048;-87
2022/10/04 01:57:03;;;;;;;7.95;2.65;;;;;;;;;;5057984;28;20048;-87
2022/10/04 01:59:33;;;;;;;5.15;2.20;;;;;;;;;;5055473;28;20084;-87
2022/10/04 02:02:07;;;;;;;5.45;2.28;;;;;;;;;;5057779;28;20050;-87
2022/10/04 02:04:37;;;;;;;5.38;2.53;;;;;;;;;;5057801;28;20050;-87
2022/10/04 02:07:10;;;;;;;5.45;2.47;;;;;;;;;;5057839;28;20106;-87
2022/10/04 02:09:41;;;;;;;6.18;2.47;;;;;;;;;;5058019;28;20044;-87
2022/10/04 02:12:08;;;;;;;6.80;2.55;;;;;;;;;;5075276;28;20404;-88
2022/10/04 02:14:36;;;;;;;5.05;2.63;;;;;;;;;;5057576;28;20078;-87
2022/10/04 02:17:09;;;;;;;8.07;2.35;;;;;;;;;;5057330;28;20049;-87
2022/10/04 02:19:38;;;;;;;5.55;2.80;;;;;;;;;;5075054;28;20584;-87
2022/10/04 02:22:07;;;;;;;8.45;2.47;;;;;;;;;;5074968;28;20048;-87
2022/10/04 02:24:36;;;;;;;4.45;3.10;;;;;;;;;;5074788;28;20059;-88
2022/10/04 02:27:05;;;;;;;3.20;2.63;;;;;;;;;;5074862;28;20044;-86
2022/10/04 02:29:32;;;;;;;5.80;2.97;;;;;;;;;;5074814;28;20044;-87
2022/10/04 02:34:46;;;;;;;4.32;2.50;;;;;;;;;;5074335;28;20048;-87
2022/10/04 02:37:14;;;;;;;10.38;3.00;;;;;;;;;;5057340;28;20048;-87
2022/10/04 02:39:47;;;;;;;5.50;2.42;;;;;;;;;;5057287;28;20075;-86
2022/10/04 02:42:33;;;;;;;5.88;2.55;;;;;;;;;;5074916;28;20041;-87
2022/10/04 02:45:05;;;;;;;8.27;2.78;;;;;;;;;;5074490;28;20060;-88
2022/10/04 02:47:47;;;;;;;8.82;2.70;;;;;;;;;;5074677;28;20052;-87
2022/10/04 02:50:23;;;;;;;4.03;2.42;;;;;;;;;;5074643;28;20052;-88
2022/10/04 02:52:54;;;;;;;6.00;2.63;;;;;;;;;;5074647;28;20045;-87
2022/10/04 02:55:26;;;;;;;6.53;3.20;;;;;;;;;;5074487;28;20053;-87
2022/10/04 02:57:54;;;;;;;6.13;4.05;;;;;;;;;;5056782;28;20067;-87
2022/10/04 03:00:23;;;;;;;11.57;6.45;;;;;;;;;;5056868;28;20065;-87
2022/10/04 03:03:20;;;;;;;21.73;13.93;;;;;;;;;;5056428;28;20489;-87
2022/10/04 03:05:53;;;;;;;10.25;5.55;;;;;;;;;;5038790;28;20489;-88
2022/10/04 03:08:21;;;;;;;11.57;5.03;;;;;;;;;;5056753;28;20044;-87
2022/10/04 03:10:49;;;;;;;15.02;8.38;;;;;;;;;;5074038;28;20519;-88
2022/10/04 03:13:18;;;;;;;24.67;12.07;;;;;;;;;;5056289;28;20044;-88
2022/10/04 03:15:45;;;;;;;19.50;10.73;;;;;;;;;;5056449;28;20469;-86
2022/10/04 03:18:15;;;;;;;21.58;13.65;;;;;;;;;;5074069;28;20113;-88
2022/10/04 03:20:42;;;;;;;23.67;14.27;;;;;;;;;;5073847;28;20148;-87
2022/10/04 03:23:11;;;;;;;26.73;15.95;;;;;;;;;;5073939;28;20060;-88
2022/10/04 03:25:51;;;;;;;25.45;13.45;;;;;;;;;;5056164;28;20040;-87
2022/10/04 03:28:18;;;;;;;26.55;10.02;;;;;;;;;;5056335;28;20171;-88
2022/10/04 03:30:48;;;;;;;14.38;9.40;;;;;;;;;;5056816;28;20496;-88
2022/10/04 03:33:19;;;;;;;14.98;9.00;;;;;;;;;;5073537;28;20048;-88
2022/10/04 03:35:48;;;;;;;14.40;5.35;;;;;;;;;;5055820;28;20068;-88
2022/10/04 03:38:17;;;;;;;8.43;5.93;;;;;;;;;;5073722;28;20051;-88
2022/10/04 03:40:50;;;;;;;14.43;6.30;;;;;;;;;;5056119;28;20056;-88
2022/10/04 03:43:17;;;;;;;6.25;3.95;;;;;;;;;;5056152;28;20131;-86
2022/10/04 03:45:45;;;;;;;5.90;3.78;;;;;;;;;;5073546;28;20412;-88
2022/10/04 03:48:14;;;;;;;11.20;7.85;;;;;;;;;;5056177;28;20167;-88
2022/10/04 03:50:46;;;;;;;13.70;7.45;;;;;;;;;;5073625;28;20060;-88
2022/10/04 03:53:41;;;;;;;11.93;7.32;;;;;;;;;;5055753;28;20044;-88
2022/10/04 03:56:24;;;;;;;14.63;6.88;;;;;;;;;;5055324;28;20076;-88
2022/10/04 03:58:52;;;;;;;6.70;4.55;;;;;;;;;;5073370;28;20056;-87
2022/10/04 04:01:25;;;;;;;11.15;6.45;;;;;;;;;;5055935;28;20052;-87
2022/10/04 04:03:52;;;;;;;13.07;5.70;;;;;;;;;;5073451;28;20053;-87
2022/10/04 04:06:20;;;;;;;9.10;5.28;;;;;;;;;;5055822;28;20135;-87
2022/10/04 04:08:50;;;;;;;13.90;4.22;;;;;;;;;;5055723;28;20412;-88
2022/10/04 04:11:21;;;;;;;11.63;4.45;;;;;;;;;;5073864;28;20052;-87
2022/10/04 04:13:51;;;;;;;15.15;4.10;;;;;;;;;;5055595;28;20048;-87
2022/10/04 04:16:25;;;;;;;12.23;3.65;;;;;;;;;;5055640;28;20044;-88
2022/10/04 04:18:53;;;;;;;10.45;3.80;;;;;;;;;;5055521;28;20049;-87
2022/10/04 04:21:24;;;;;;;10.52;4.18;;;;;;;;;;5073187;28;20053;-87
2022/10/04 04:23:58;;;;;;;17.08;4.50;;;;;;;;;;5055548;28;20412;-88
2022/10/04 04:26:27;;;;;;;6.80;5.00;;;;;;;;;;5073176;28;20052;-88
2022/10/04 04:28:57;;;;;;;8.02;4.45;;;;;;;;;;5055577;28;20055;-88
2022/10/04 04:31:26;;;;;;;8.10;4.10;;;;;;;;;;5073262;28;20408;-87
2022/10/04 04:33:59;;;;;;;7.40;4.57;;;;;;;;;;5055481;28;20053;-88
2022/10/04 04:36:31;;;;;;;5.30;4.10;;;;;;;;;;5055223;28;20136;-88
2022/10/04 04:39:35;;;;;;;11.05;4.57;;;;;;;;;;5055068;28;20053;-88
2022/10/04 04:42:05;;;;;;;8.65;4.72;;;;;;;;;;5072906;28;20131;-88
2022/10/04 04:44:33;;;;;;;5.28;4.20;;;;;;;;;;5072931;28;20057;-88
2022/10/04 04:47:00;;;;;;;13.90;4.82;;;;;;;;;;5055489;28;20447;-88
2022/10/04 04:49:28;;;;;;;10.27;4.35;;;;;;;;;;5055653;28;20052;-88
2022/10/04 04:51:56;;;;;;;7.50;4.47;;;;;;;;;;5072919;28;20052;-88
2022/10/04 04:54:25;;;;;;;17.88;5.10;;;;;;;;;;5055187;28;20385;-88
2022/10/04 04:56:53;;;;;;;10.07;5.03;;;;;;;;;;5072854;28;20048;-89
2022/10/04 04:59:22;;;;;;;10.32;4.82;;;;;;;;;;5055409;28;20140;-88
2022/10/04 05:01:49;;;;;;;18.58;5.22;;;;;;;;;;5055371;28;20060;-87
2022/10/04 05:04:18;;;;;;;10.55;5.10;;;;;;;;;;5074001;28;20094;-88
2022/10/04 05:06:47;;;;;;;13.88;3.80;;;;;;;;;;5077566;28;20475;-87
2022/10/04 05:09:34;;;;;;;11.63;4.82;;;;;;;;;;5077551;28;20052;-88
2022/10/04 05:12:06;;;;;;;10.48;4.72;;;;;;;;;;5058936;28;20044;-88
2022/10/04 05:14:34;;;;;;;9.93;4.50;;;;;;;;;;5058742;28;20048;-88
2022/10/04 05:17:01;;;;;;;4.57;3.63;;;;;;;;;;5058814;28;20504;-88
2022/10/04 05:19:30;;;;;;;8.50;3.72;;;;;;;;;;5076024;28;20049;-88
2022/10/04 05:21:59;;;;;;;9.93;4.13;;;;;;;;;;5058507;28;20049;-88
2022/10/04 05:24:30;;;;;;;7.57;4.03;;;;;;;;;;5076261;28;20049;-88
2022/10/04 05:27:18;;;;;;;10.05;3.75;;;;;;;;;;5058460;28;20048;-88
2022/10/04 05:30:04;;;;;;;13.70;5.55;;;;;;;;;;5047938;28;20045;-88
2022/10/04 05:32:47;;;;;;;12.13;4.22;;;;;;;;;;5058788;28;20051;-88
2022/10/04 05:35:18;;;;;;;6.75;3.28;;;;;;;;;;5058532;28;20056;-88
2022/10/04 05:37:52;;;;;;;10.55;4.15;;;;;;;;;;5058351;28;20051;-88
2022/10/04 05:40:26;;;;;;;12.85;4.38;;;;;;;;;;5075792;28;20131;-88
2022/10/04 05:42:54;;;;;;;11.52;4.18;;;;;;;;;;5058359;28;20053;-89
2022/10/04 05:45:23;;;;;;;8.57;4.68;;;;;;;;;;5075950;28;20052;-89
2022/10/04 05:47:52;;;;;;;12.43;4.40;;;;;;;;;;5081140;28;20131;-88
2022/10/04 05:50:28;;;;;;;9.60;4.25;;;;;;;;;;5058809;28;20407;-88
2022/10/04 05:53:08;;;;;;;7.80;3.83;;;;;;;;;;5075704;28;20052;-88
2022/10/04 05:55:49;;;;;;;11.63;4.50;;;;;;;;;;5058505;28;20175;-88
2022/10/04 05:58:20;;;;;;;12.98;5.00;;;;;;;;;;5075938;28;20131;-88
2022/10/04 06:01:09;;;;;;;11.50;4.30;;;;;;;;;;5075546;28;20059;-88
2022/10/04 06:03:37;;;;;;;9.10;4.75;;;;;;;;;;5058134;28;20473;-88
2022/10/04 06:06:04;;;;;;;6.05;4.35;;;;;;;;;;5057932;28;20055;-89
2022/10/04 06:08:41;;;;;;;12.52;4.93;;;;;;;;;;5057900;28;20049;-87
2022/10/04 06:11:17;;;;;;;11.00;5.43;;;;;;;;;;5075471;28;20055;-88
2022/10/04 06:14:03;;;;;;;5.57;4.15;;;;;;;;;;5057699;28;20055;-88
2022/10/04 06:16:39;;;;;;;13.90;5.75;;;;;;;;;;5075098;28;20053;-89
2022/10/04 06:19:16;;;;;;;6.72;4.28;;;;;;;;;;5075389;28;20063;-88
2022/10/04 06:22:00;;;;;;;9.52;4.78;;;;;;;;;;5057517;28;20052;-88
2022/10/04 06:24:29;;;;;;;8.68;4.70;;;;;;;;;;5057616;28;20412;-88
2022/10/04 06:27:02;;;;;;;12.55;5.80;;;;;;;;;;5057384;28;20049;-88
2022/10/04 06:29:31;;;;;;;10.57;8.38;;;;;;;;;;5057605;28;20501;-88
2022/10/04 06:32:01;;;;;;;18.95;11.40;;;;;;;;;;5057178;28;20059;-88
2022/10/04 06:34:40;;;;;;;25.17;12.85;;;;;;;;;;5057029;28;20059;-88
2022/10/04 06:37:11;;;;;;;12.55;7.78;;;;;;;;;;5057474;28;20059;-88
2022/10/04 06:39:44;;;;;;;7.40;3.63;;;;;;;;;;5057176;28;20048;-87
2022/10/04 06:42:11;;;;;;;9.07;3.20;;;;;;;;;;5057135;28;20052;-87
2022/10/04 06:44:48;;;;;;;6.95;4.70;;;;;;;;;;5074241;28;20063;-88
2022/10/04 06:47:30;;;;;;;15.65;5.88;;;;;;;;;;5056837;28;20137;-87
2022/10/04 06:50:13;;;;;;;7.93;4.15;;;;;;;;;;5056872;28;20045;-87
2022/10/04 06:52:46;;;;;;;12.18;6.70;;;;;;;;;;5056949;28;20504;-86
2022/10/04 06:55:19;;;;;;;7.88;3.00;;;;;;;;;;5056524;28;20044;-86
2022/10/04 06:58:08;;;;;;;10.73;3.63;;;;;;;;;;5074312;28;20060;-86
2022/10/04 07:00:40;;;;;;;5.40;3.88;;;;;;;;;;5056745;28;20040;-87
2022/10/04 07:03:22;;;;;;;3.72;3.30;;;;;;;;;;5056619;28;20049;-86
2022/10/04 07:06:06;;;;;;;10.23;3.90;;;;;;;;;;5056612;28;20091;-87
2022/10/04 07:08:39;;;;;;;7.88;6.70;;;;;;;;;;5056534;28;20058;-87
2022/10/04 07:11:15;;;;;;;7.72;4.93;;;;;;;;;;5074217;28;20546;-87
2022/10/04 07:13:42;;;;;;;7.47;4.15;;;;;;;;;;5056201;28;20054;-87
2022/10/04 07:16:22;;;;;;;13.00;9.07;;;;;;;;;;5056180;28;20136;-87
2022/10/04 07:19:04;;;;;;;10.93;6.13;;;;;;;;;;5073899;28;20052;-87
2022/10/04 07:21:54;;;;;;;24.23;14.98;;;;;;;;;;5056246;28;20053;-86
2022/10/04 07:24:31;;;;;;;8.68;4.88;;;;;;;;;;5037630;28;20477;-86
2022/10/04 07:27:01;;;;;;;22.17;16.70;;;;;;;;;;5055299;28;20060;-87
2022/10/04 07:29:31;;;;;;;20.55;11.50;;;;;;;;;;5056269;28;20453;-86
2022/10/04 07:32:04;;;;;;;15.45;6.97;;;;;;;;;;5056161;28;20047;-87
2022/10/04 07:34:46;;;;;;;8.68;3.08;;;;;;;;;;5073694;28;20052;-87
2022/10/04 07:37:13;;;;;;;5.13;2.75;;;;;;;;;;5055754;28;20060;-86
2022/10/04 07:39:51;;;;;;;5.22;2.97;;;;;;;;;;5056220;28;20504;-87
2022/10/04 07:42:23;;;;;;;2.58;1.88;;;;;;;;;;5056131;28;20171;-86
2022/10/04 07:45:04;;;;;;;10.25;2.42;;;;;;;;;;5055422;28;20054;-86
2022/10/04 07:47:32;;;;;;;4.45;2.20;;;;;;;;;;5055976;28;20047;-87
2022/10/04 07:49:59;;;;;;;25.27;16.05;;;;;;;;;;5055863;28;20053;-87
2022/10/04 07:52:32;;;;;;;6.85;4.55;;;;;;;;;;5073541;28;20412;-87
2022/10/04 07:55:05;;;;;;;7.80;3.00;;;;;;;;;;5055671;28;20048;-86
2022/10/04 07:57:43;;;;;;;5.55;3.53;;;;;;;;;;5054774;28;20052;-86
2022/10/04 08:00:15;;;;;;;5.60;2.92;;;;;;;;;;5054884;28;20045;-87
2022/10/04 08:02:54;;;;;;;9.38;4.15;;;;;;;;;;5055193;28;20048;-85
2022/10/04 08:05:36;;;;;;;4.35;3.60;;;;;;;;;;5056021;28;20044;-86
2022/10/04 08:08:06;;;;;;;7.35;3.95;;;;;;;;;;5055464;28;20052;-86
2022/10/04 08:10:34;;;;;;;12.35;3.13;;;;;;;;;;5055577;28;20094;-86
2022/10/04 08:13:06;;;;;;;6.45;2.63;;;;;;;;;;5055622;28;20040;-87
2022/10/04 08:15:33;;;;;;;8.73;2.88;;;;;;;;;;5055504;28;20049;-86
2022/10/04 08:18:04;;;;;;;6.05;2.90;;;;;;;;;;5073484;28;20131;-86
2022/10/04 08:20:44;;;;;;;5.85;2.13;;;;;;;;;;5073148;28;20055;-86
2022/10/04 08:23:38;;;;;;;4.45;2.15;;;;;;;;;;5055325;28;20465;-86
2022/10/04 08:26:15;;;;;;;7.47;2.10;;;;;;;;;;5053051;28;20041;-85
2022/10/04 08:31:40;;;;;;;8.18;2.55;;;;;;;;;;5072936;28;20055;-85
2022/10/04 08:34:26;;;;;;;3.53;1.77;;;;;;;;;;5055399;28;20443;-86
2022/10/04 08:36:56;;;;;;;14.82;2.58;;;;;;;;;;5055258;28;20112;-87
2022/10/04 08:39:25;;;;;;;13.30;1.90;;;;;;;;;;5058523;28;20090;-87
2022/10/04 08:42:03;;;;;;;13.48;2.40;;;;;;;;;;5059286;28;20053;-86
2022/10/04 08:44:30;;;;;;;9.25;2.35;;;;;;;;;;5076377;28;20060;-86
2022/10/04 08:47:07;;;;;;;6.30;2.53;;;;;;;;;;5076783;28;20048;-86
2022/10/04 08:49:53;;;;;;;15.15;2.85;;;;;;;;;;5076689;28;20048;-87
2022/10/04 08:52:21;;;;;;;16.33;2.55;;;;;;;;;;5076777;28;20044;-87
2022/10/04 08:54:48;;;;;;;10.68;2.72;;;;;;;;;;5059121;28;20058;-88
2022/10/04 08:57:28;;;;;;;9.88;2.88;;;;;;;;;;5059340;28;20056;-89
2022/10/04 09:00:06;;;;;;;7.30;2.50;;;;;;;;;;5059152;28;20055;-87
2022/10/04 09:02:52;;;;;;;6.28;2.58;;;;;;;;;;5058868;28;20052;-89
2022/10/04 09:05:38;;;;;;;7.32;3.38;;;;;;;;;;5076642;28;20056;-88
2022/10/04 09:08:14;;;;;;;9.77;6.55;;;;;;;;;;5059205;28;20049;-87
2022/10/04 09:10:47;;;;;;;7.13;3.10;;;;;;;;;;5076124;28;20084;-87
2022/10/04 09:13:30;;;;;;;15.82;6.30;;;;;;;;;;5058906;28;20056;-87
2022/10/04 09:16:16;;;;;;;11.27;2.90;;;;;;;;;;5058501;28;20087;-87
2022/10/04 09:18:52;;;;;;;6.57;2.22;;;;;;;;;;5058422;28;20053;-86
2022/10/04 09:21:32;;;;;;;7.93;2.90;;;;;;;;;;5058349;28;20079;-88
2022/10/04 09:24:18;;;;;;;12.23;5.10;;;;;;;;;;5058597;28;20048;-88
2022/10/04 09:26:51;;;;;;;12.98;6.70;;;;;;;;;;5075989;28;20052;-87
2022/10/04 09:29:30;;;;;;;9.23;4.35;;;;;;;;;;5076181;28;20058;-86
2022/10/04 09:32:16;;;;;;;7.10;1.90;;;;;;;;;;5075950;28;20045;-87
2022/10/04 09:34:46;;;;;;;6.85;2.63;;;;;;;;;;5058393;28;20499;-87
2022/10/04 09:37:16;;;;;;;4.72;2.25;;;;;;;;;;5076059;28;20045;-89
2022/10/04 09:39:57;;;;;;;9.68;5.80;;;;;;;;;;5057982;28;20517;-88
2022/10/04 09:42:32;;;;;;;6.63;2.10;;;;;;;;;;5058463;28;20048;-88
2022/10/04 09:45:06;;;;;;;11.35;4.43;;;;;;;;;;5075459;28;20059;-89
2022/10/04 09:47:44;;;;;;;7.65;4.25;;;;;;;;;;5058030;28;20053;-88
2022/10/04 09:50:25;;;;;;;8.02;3.47;;;;;;;;;;5057285;28;20095;-89
2022/10/04 09:53:02;;;;;;;9.52;1.80;;;;;;;;;;5058022;28;20083;-88
2022/10/04 09:55:32;;;;;;;8.68;4.90;;;;;;;;;;5058114;28;20057;-89
2022/10/04 09:58:13;;;;;;;5.35;2.25;;;;;;;;;;5058051;28;20083;-88
2022/10/04 10:01:10;;;;;;;2.33;1.30;;;;;;;;;;5057829;28;20067;-87
2022/10/04 10:03:40;;;;;;;2.85;0.95;;;;;;;;;;5045706;28;20045;-86
2022/10/04 10:06:13;;;;;;;6.78;1.27;;;;;;;;;;5075190;28;20512;-85
2022/10/04 10:08:53;;;;;;;3.22;0.70;;;;;;;;;;5075118;28;20044;-86
2022/10/04 10:14:30;;;;;;;5.97;1.00;;;;;;;;;;5075148;28;20405;-87
2022/10/04 10:17:36;;;;;;;5.32;0.90;;;;;;;;;;5057388;28;20055;-86
2022/10/04 10:20:19;;;;;;;2.13;0.88;;;;;;;;;;5013397;28;20132;-87
2022/10/04 10:22:52;;;;;;;2.88;0.95;;;;;;;;;;5053658;28;20385;-85
2022/10/04 10:25:39;;;;;;;1.90;0.93;;;;;;;;;;5074667;28;20045;-86
2022/10/04 10:28:27;;;;;;;3.25;0.80;;;;;;;;;;5057272;28;20047;-87
2022/10/04 10:30:55;;;;;;;1.67;0.95;;;;;;;;;;5057070;28;20044;-88
2022/10/04 10:33:41;;;;;;;3.72;0.90;;;;;;;;;;5057208;28;20044;-86
2022/10/04 10:36:32;;;;;;;2.88;0.80;;;;;;;;;;5056573;28;20048;-88
2022/10/04 10:39:14;;;;;;;2.38;0.70;;;;;;;;;;5075007;28;20044;-87
2022/10/04 10:42:06;;;;;;;2.10;0.60;;;;;;;;;;5074707;28;20409;-86
2022/10/04 10:44:46;;;;;;;4.55;0.70;;;;;;;;;;5056725;28;20143;-86
2022/10/04 10:47:34;;;;;;;5.85;0.65;;;;;;;;;;5056697;28;20053;-85
2022/10/04 10:50:26;;;;;;;4.30;0.80;;;;;;;;;;5074582;28;20063;-86
2022/10/04 10:53:11;;;;;;;3.58;0.82;;;;;;;;;;5056579;28;20048;-86
2022/10/04 10:55:48;;;;;;;21.13;2.03;;;;;;;;;;5056814;28;20041;-86
2022/10/04 10:58:34;;;;;;;16.42;1.60;;;;;;;;;;5056623;28;20067;-86
2022/10/04 11:01:20;;;;;;;2.67;0.77;;;;;;;;;;5073572;28;20477;-86
2022/10/04 11:04:02;;;;;;;4.32;0.70;;;;;;;;;;5056467;28;20175;-86
2022/10/04 11:06:37;;;;;;;2.58;0.82;;;;;;;;;;5056369;28;20049;-87
2022/10/04 11:09:04;;;;;;;1.50;0.70;;;;;;;;;;5056091;28;20056;-89
2022/10/04 11:11:42;;;;;;;3.13;0.80;;;;;;;;;;5056014;28;20058;-88
2022/10/04 11:14:32;;;;;;;3.60;0.98;;;;;;;;;;5056708;28;20416;-90
2022/10/04 11:16:59;;;;;;;2.60;0.73;;;;;;;;;;5074244;28;20135;-88
2022/10/04 11:19:43;;;;;;;2.88;0.90;;;;;;;;;;5056484;28;20048;-89
2022/10/04 11:22:45;;;;;;;1.10;0.65;;;;;;;;;;5073911;28;20416;-89
2022/10/04 11:25:15;;;;;;;4.43;0.93;;;;;;;;;;4992437;28;20054;-86
2022/10/04 11:28:02;;;;;;;1.00;0.63;;;;;;;;;;5045596;28;20055;-87
2022/10/04 11:30:50;;;;;;;3.10;0.70;;;;;;;;;;5055798;28;20056;-87
2022/10/04 11:33:20;;;;;;;3.20;1.00;;;;;;;;;;5056167;28;20054;-86
2022/10/04 11:35:54;;;;;;;6.68;1.20;;;;;;;;;;5073422;28;20503;-86
2022/10/04 11:38:27;;;;;;;3.30;1.05;;;;;;;;;;5074121;28;20404;-86
2022/10/04 11:41:33;;;;;;;1.10;0.70;;;;;;;;;;5055850;28;20477;-87
2022/10/04 11:44:03;;;;;;;3.80;0.70;;;;;;;;;;4991921;28;20433;-89
2022/10/04 11:46:34;;;;;;;2.38;0.82;;;;;;;;;;4992431;28;20513;-87
2022/10/04 11:49:20;;;;;;;5.75;0.68;;;;;;;;;;5035221;28;20059;-87
2022/10/04 11:51:57;;;;;;;2.33;0.60;;;;;;;;;;5073550;28;20048;-88
2022/10/04 11:54:47;;;;;;;2.67;0.70;;;;;;;;;;5056382;28;20052;-86
2022/10/04 11:57:36;;;;;;;6.00;1.10;;;;;;;;;;5055461;28;20055;-86
2022/10/04 12:00:14;;;;;;;4.75;0.80;;;;;;;;;;5046004;28;20044;-86
2022/10/04 12:03:03;;;;;;;1.77;0.70;;;;;;;;;;5055464;28;20178;-87
2022/10/04 12:05:50;;;;;;;3.42;0.77;;;;;;;;;;5055162;28;20078;-87
2022/10/04 12:08:20;;;;;;;2.75;0.98;;;;;;;;;;5073235;28;20049;-87
2022/10/04 12:11:10;;;;;;;1.70;0.80;;;;;;;;;;5055350;28;20063;-86
2022/10/04 12:13:50;;;;;;;2.72;0.88;;;;;;;;;;5050332;28;20044;-85
2022/10/04 12:16:42;;;;;;;5.00;1.10;;;;;;;;;;5059269;28;20048;-93
2022/10/04 12:19:14;;;;;;;7.20;1.20;;;;;;;;;;5059825;28;20135;-88
2022/10/04 12:21:50;;;;;;;2.55;1.25;;;;;;;;;;5077219;28;20048;-86
2022/10/04 12:24:38;;;;;;;2.55;0.98;;;;;;;;;;5077209;28;20135;-89
2022/10/04 12:27:20;;;;;;;3.58;1.20;;;;;;;;;;5036639;28;20052;-88
2022/10/04 12:30:06;;;;;;;2.67;1.13;;;;;;;;;;5059498;28;20055;-86
2022/10/04 12:32:44;;;;;;;2.78;1.00;;;;;;;;;;5059052;28;20059;-88
2022/10/04 12:35:14;;;;;;;2.08;0.82;;;;;;;;;;5077188;28;20056;-87
2022/10/04 12:37:49;;;;;;;5.70;1.63;;;;;;;;;;5076619;28;20051;-88
2022/10/04 12:40:16;;;;;;;2.20;1.25;;;;;;;;;;5059245;28;20044;-89
2022/10/04 12:43:03;;;;;;;6.57;1.13;;;;;;;;;;5059121;28;20150;-86
2022/10/04 12:45:55;;;;;;;4.20;1.10;;;;;;;;;;5055231;28;20523;-87
2022/10/04 12:48:37;;;;;;;4.82;1.17;;;;;;;;;;5012609;28;20071;-88
2022/10/04 12:51:07;;;;;;;3.42;1.20;;;;;;;;;;5055973;28;20049;-87
2022/10/04 12:53:35;;;;;;;3.42;1.00;;;;;;;;;;5055285;28;20049;-86
2022/10/04 12:56:07;;;;;;;2.58;1.08;;;;;;;;;;5055592;28;20076;-86
2022/10/04 12:58:45;;;;;;;4.45;1.30;;;;;;;;;;5055438;28;20513;-88
2022/10/04 13:01:17;;;;;;;1.73;1.00;;;;;;;;;;5056589;28;20044;-87
2022/10/04 13:04:00;;;;;;;4.38;1.60;;;;;;;;;;5055455;28;20053;-88
2022/10/04 13:06:38;;;;;;;3.60;1.25;;;;;;;;;;5056416;28;20049;-87
2022/10/04 13:09:12;;;;;;;1.48;1.15;;;;;;;;;;5056339;28;20551;-87
2022/10/04 13:11:51;;;;;;;3.72;1.35;;;;;;;;;;5055223;28;20052;-87
2022/10/04 13:14:21;;;;;;;2.08;1.13;;;;;;;;;;5055096;28;20092;-87
2022/10/04 13:16:49;;;;;;;3.60;1.10;;;;;;;;;;5054868;28;20406;-86
2022/10/04 13:19:49;;;;;;;1.55;0.93;;;;;;;;;;5055913;28;20431;-87
2022/10/04 13:22:21;;;;;;;3.00;1.30;;;;;;;;;;5054888;28;20057;-85
2022/10/04 13:25:31;;;;;;;5.63;1.52;;;;;;;;;;5053654;28;20071;-86
2022/10/04 13:27:58;;;;;;;2.45;1.10;;;;;;;;;;5056036;28;20041;-86
2022/10/04 13:30:46;;;;;;;2.25;0.98;;;;;;;;;;5054924;28;20053;-86
2022/10/04 13:33:36;;;;;;;3.30;1.50;;;;;;;;;;5055082;28;20056;-87
2022/10/04 13:36:22;;;;;;;6.97;1.35;;;;;;;;;;5054681;28;20088;-87
2022/10/04 13:38:49;;;;;;;4.15;1.25;;;;;;;;;;5054118;28;20049;-86
2022/10/04 13:41:35;;;;;;;4.03;1.30;;;;;;;;;;5054363;28;20136;-86
2022/10/04 13:44:16;;;;;;;3.92;1.33;;;;;;;;;;5055329;28;20485;-87
2022/10/04 13:47:03;;;;;;;3.08;1.42;;;;;;;;;;5058081;28;20143;-87
2022/10/04 13:49:43;;;;;;;3.88;1.10;;;;;;;;;;5057773;28;20056;-87
2022/10/04 13:58:27;;;;;;;10.90;1.98;;;;;;;;;;5011984;28;20053;-87
2022/10/04 14:01:14;;;;;;;2.80;1.35;;;;;;;;;;5049805;28;20052;-88
2022/10/04 14:03:52;;;;;;;12.65;1.67;;;;;;;;;;5057590;28;20503;-87
2022/10/04 14:06:38;;;;;;;5.25;1.33;;;;;;;;;;5057594;28;20087;-87
2022/10/04 14:09:21;;;;;;;2.15;1.23;;;;;;;;;;5075392;28;20040;-87
2022/10/04 14:11:54;;;;;;;2.72;1.40;;;;;;;;;;5057519;28;20040;-87
2022/10/04 14:14:43;;;;;;;3.28;1.42;;;;;;;;;;5058002;28;20102;-88
2022/10/04 14:17:10;;;;;;;;;;;;;;;;;;5075359;28;20496;-86
2022/10/04 14:19:46;;;;;;;3.40;1.08;;;;;;;;;;5073914;28;19920;-86
2022/10/04 14:22:36;;;;;;;4.53;1.10;;;;;;;;;;5075235;28;20067;-88
2022/10/04 14:25:04;;;;;;;4.45;1.17;;;;;;;;;;5073981;28;20041;-86
2022/10/04 14:27:31;;;;;;;3.47;1.30;;;;;;;;;;5074499;28;20056;-87
2022/10/04 14:30:11;;;;;;;2.63;1.20;;;;;;;;;;5057114;28;20135;-88
2022/10/04 14:32:51;;;;;;;2.20;1.20;;;;;;;;;;5057118;28;20504;-87
2022/10/04 14:35:31;;;;;;;1.95;1.13;;;;;;;;;;5057300;28;20507;-88
2022/10/04 14:38:12;;;;;;;2.92;1.48;;;;;;;;;;5057273;28;20052;-87
2022/10/04 14:40:57;;;;;;;1.65;1.40;;;;;;;;;;5074549;28;20083;-88
2022/10/04 14:43:43;;;;;;;2.53;1.30;;;;;;;;;;5056915;28;20045;-87
2022/10/04 14:46:16;;;;;;;4.50;1.33;;;;;;;;;;5056671;28;20061;-88
2022/10/04 14:49:03;;;;;;;2.15;1.13;;;;;;;;;;5057247;28;20048;-88
2022/10/04 14:51:58;;;;;;;2.67;1.23;;;;;;;;;;5056912;28;20050;-87
2022/10/04 14:54:37;;;;;;;5.38;1.70;;;;;;;;;;5056376;28;20056;-86
2022/10/04 14:57:11;;;;;;;3.97;1.50;;;;;;;;;;5056715;28;20408;-88
2022/10/04 14:59:38;;;;;;;5.30;1.48;;;;;;;;;;5056671;28;20056;-87
2022/10/04 15:02:24;;;;;;;2.97;1.60;;;;;;;;;;5056627;28;20081;-87
2022/10/04 15:05:10;;;;;;;2.72;1.30;;;;;;;;;;5056089;28;20056;-88
2022/10/04 15:07:39;;;;;;;4.68;1.58;;;;;;;;;;5056663;28;20055;-88
2022/10/04 15:10:06;;;;;;;4.55;1.23;;;;;;;;;;5074392;28;20055;-88
2022/10/04 15:12:45;;;;;;;3.00;1.30;;;;;;;;;;5056680;28;20049;-86
2022/10/04 15:15:41;;;;;;;6.10;1.30;;;;;;;;;;5059394;28;20067;-87
2022/10/04 15:18:21;;;;;;;2.60;1.40;;;;;;;;;;5056291;28;20135;-90
2022/10/04 15:20:48;;;;;;;5.72;1.50;;;;;;;;;;5056604;28;20044;-87
2022/10/04 15:23:28;;;;;;;2.03;1.38;;;;;;;;;;5074231;28;20053;-87
2022/10/04 15:26:18;;;;;;;2.22;1.10;;;;;;;;;;5055938;28;20048;-87
2022/10/04 15:28:48;;;;;;;2.78;1.50;;;;;;;;;;5048946;28;20131;-86
2022/10/04 15:31:25;;;;;;;9.57;1.77;;;;;;;;;;5056218;28;20129;-87
2022/10/04 15:33:55;;;;;;;3.58;1.30;;;;;;;;;;5055706;28;20107;-87
2022/10/04 15:36:47;;;;;;;4.03;1.58;;;;;;;;;;5055952;28;20048;-87
2022/10/04 15:39:39;;;;;;;2.70;1.20;;;;;;;;;;5056259;28;20059;-87
2022/10/04 15:42:12;;;;;;;6.18;1.20;;;;;;;;;;5055989;28;20128;-87
2022/10/04 15:44:55;;;;;;;2.85;1.30;;;;;;;;;;5073670;28;20547;-87
2022/10/04 15:47:24;;;;;;;3.60;1.05;;;;;;;;;;5073411;28;20055;-88